• Join FlightAware (Why Join?)
  • Login
  • US Flag GB Flag 
13:21 EDT


 

Airport Tracker/Info


-or-


 

Live Flight TrackerFlight Track Log ✈ SWA303 ✈ 17-Apr-2013 ✈ KDEN - KIAD

Flight Track Log - Related Links

Times and Time Zones

All times are in EDT time to prevent confusion due to time zone crossing. See the SWA303 flight status page for this flight to view local times or setup timezone preferences in your user account.

Time Position Orientation Groundspeed Altitude Reporting Facility
EDT Latitude Longitude Course Direction KTS MPH feet Rate Location/Type
18:24 39.8833 -104.7000 49° Northeast 139 160 7,100  Level Denver TRACON
18:25 39.9167 -104.6500 49° Northeast 200 230 9,800 2,280 Climbing Denver TRACON
18:26 39.9539 -104.5739 57° Northeast 281 323 11,400 2,580 Climbing Denver Center
18:27 39.9547 -104.4547 89° East 327 376 14,800 3,120 Climbing Denver Center
18:28 39.9600 -104.3097 87° East 376 433 17,900 3,120 Climbing Denver Center
18:29 39.9706 -104.1672 84° East 393 452 21,200 2,460 Climbing Denver Center
18:30 39.9858 -104.0197 82° East 407 468 23,000 2,040 Climbing Denver Center
18:31 40.0025 -103.8858 81° East 404 465 25,500 2,340 Climbing Denver Center
18:32 40.0303 -103.7056 79° East 427 491 27,900 1,860 Climbing Denver Center
18:33 40.0578 -103.5422 78° East 448 516 29,400 1,560 Climbing Denver Center
18:34 40.0872 -103.3667 78° East 490 564 31,200 1,740 Climbing Denver Center
18:35 40.1156 -103.1906 78° East 491 565 33,000 2,280 Climbing Denver Center
18:36 40.1436 -103.0128 78° East 495 570 35,900 1,860 Climbing Denver Center
18:37 40.1703 -102.8406 78° East 482 555 36,900 480 Climbing Denver Center
18:38 40.1997 -102.6550 78° East 495 570 37,000 480 Climbing Denver Center
18:39 40.2500 -102.4900 68° East 510 587 38,000 1,140 Climbing Denver Center
18:40 40.3144 -102.2975 66° East 517 595 39,400 1,020 Climbing Denver Center
18:41 40.3697 -102.1322 66° East 517 595 40,200 780 Climbing Denver Center
18:42 40.4247 -101.9653 67° East 521 600 41,000 360 Climbing Denver Center
18:43 40.4881 -101.7731 67° East 515 593 41,000  Level Denver Center
18:44 40.5417 -101.6075 67° East 515 593 41,000  Level Denver Center
18:45 40.6031 -101.4158 67° East 511 588 41,000  Level Denver Center
18:46 40.6556 -101.2531 67° East 507 583 41,000  Level Denver Center
18:47 40.7072 -101.0900 67° East 505 581 41,000  Level Denver Center
18:48 40.7672 -100.8997 67° East 504 580 41,000  Level Denver Center
18:49 40.8178 -100.7436 67° East 506 582 41,000  Level Denver Center
18:50 40.8769 -100.5553 67° East 511 588 41,000  Level Denver Center
18:51 40.9367 -100.3625 68° East 510 587 41,000  Level Denver Center
18:52 40.9875 -100.1969 68° East 509 586 41,000  Level Denver Center
18:53 41.0392 -100.0303 68° East 511 588 41,000  Level Denver Center
18:54 41.0986 -99.8339 68° East 514 592 41,000  Level Denver Center
18:55 41.1503 -99.6636 68° East 518 596 41,000  Level Denver Center
18:56 41.2103 -99.4647 68° East 520 598 41,000  Level Denver Center
18:58 41.2594 -99.3003 68° East 521 600 41,000  Level Denver Center
18:59 41.3139 -99.1197 68° East 521 600 41,000  Level Denver Center
19:00 41.3669 -98.9369 69° East 520 598 41,000  Level Denver Center
19:00 41.3864 -98.8661 70° East 518 596 41,000  Level Minneapolis Center
19:01 41.4400 -98.6869 68° East 519 597 41,000  Level Minneapolis Center
19:02 41.4911 -98.5081 69° East 517 595 41,000  Level Minneapolis Center
19:03 41.5442 -98.3253 69° East 513 590 41,000  Level Minneapolis Center
19:04 41.5944 -98.1489 69° East 508 585 41,000  Level Minneapolis Center
19:05 41.6428 -97.9808 69° East 504 580 41,000  Level Minneapolis Center
19:06 41.7028 -97.7683 69° East 507 583 41,000  Level Minneapolis Center
19:07 41.7522 -97.5892 70° East 511 588 41,000  Level Minneapolis Center
19:08 41.8028 -97.4117 69° East 509 586 41,000  Level Minneapolis Center
19:09 41.8511 -97.2333 70° East 509 586 41,000  Level Minneapolis Center
19:10 41.9000 -97.0553 70° East 507 583 41,000  Level Minneapolis Center
19:11 41.9489 -96.8778 70° East 506 582 41,000  Level Minneapolis Center
19:12 41.9967 -96.6983 70° East 508 585 41,000  Level Minneapolis Center
19:13 42.0453 -96.5203 70° East 506 582 41,000  Level Minneapolis Center
19:14 42.0922 -96.3408 71° East 506 582 41,000  Level Minneapolis Center
19:15 42.1483 -96.1269 70° East 503 579 41,000 -300 Level Minneapolis Center
19:16 42.1947 -95.9489 71° East 501 577 40,400 -840 Descending Minneapolis Center
19:17 42.2378 -95.7831 71° East 474 545 39,400 -720 Descending Minneapolis Center
19:18 42.2800 -95.6167 71° East 470 541 39,000 -240 Descending Minneapolis Center
19:19 42.3233 -95.4511 70° East 468 539 39,000  Level Minneapolis Center
19:20 42.3667 -95.2828 71° East 472 543 39,000  Level Minneapolis Center
19:21 42.4092 -95.1131 71° East 475 547 39,000  Level Minneapolis Center
19:23 42.4500 -94.9419 72° East 477 549 39,000  Level Minneapolis Center
19:24 42.5025 -94.7369 71° East 480 552 39,000  Level Minneapolis Center
19:25 42.5403 -94.5817 72° East 480 552 39,000  Level Minneapolis Center
19:26 42.5817 -94.4106 72° East 481 554 39,000  Level Minneapolis Center
19:27 42.6339 -94.2408 67° East 493 567 39,000  Level Minneapolis Center
19:28 42.7342 -94.0517 54° Northeast 513 590 39,000  Level Minneapolis Center
19:29 42.8142 -93.8903 56° Northeast 515 593 39,000  Level Minneapolis Center
19:30 42.8953 -93.7289 56° Northeast 520 598 39,000  Level Minneapolis Center
19:31 42.9767 -93.5664 56° Northeast 522 601 39,000  Level Minneapolis Center
19:32 43.0569 -93.4042 56° Northeast 521 600 39,000  Level Minneapolis Center
19:33 43.1367 -93.2383 57° Northeast 522 601 39,000  Level Minneapolis Center
19:34 43.2272 -93.0361 58° Northeast 522 601 39,000  Level Minneapolis Center
19:35 43.3022 -92.8675 59° Northeast 521 600 39,000  Level Minneapolis Center
19:36 43.3772 -92.6994 58° Northeast 519 597 39,000  Level Minneapolis Center
19:37 43.4525 -92.5286 59° Northeast 523 602 39,000  Level Minneapolis Center
19:38 43.5286 -92.3564 59° Northeast 527 606 39,000  Level Minneapolis Center
19:39 43.6053 -92.1811 59° Northeast 530 610 39,000  Level Minneapolis Center
19:40 43.6792 -92.0092 59° Northeast 524 603 39,000  Level Minneapolis Center
19:41 43.7681 -91.8050 59° Northeast 519 597 39,000  Level Minneapolis Center
19:42 43.8283 -91.6308 64° Northeast 506 582 39,000  Level Minneapolis Center
19:43 43.8686 -91.4453 73° East 504 580 39,000  Level Minneapolis Center
19:44 43.9114 -91.2614 72° East 504 580 39,000  Level Minneapolis Center
19:45 43.9533 -91.0756 73° East 506 582 39,000  Level Minneapolis Center
19:46 43.9942 -90.8892 73° East 507 583 39,000  Level Minneapolis Center
19:47 44.0250 -90.6644 79° East 500 575 39,000  Level Minneapolis Center
19:48 44.0042 -90.5028 100° East 471 542 39,000  Level Minneapolis Center
19:49 43.9831 -90.3217 99° East 473 544 39,000  Level Minneapolis Center
19:50 43.9553 -90.1111 100° East 474 545 39,000  Level Minneapolis Center
19:51 43.9333 -89.9289 99° East 477 549 39,000  Level Minneapolis Center
19:52 43.9103 -89.7478 100° East 478 550 39,000  Level Minneapolis Center
19:53 43.8861 -89.5653 100° East 479 551 39,000  Level Minneapolis Center
19:54 43.8617 -89.3831 100° East 480 552 39,000  Level Minneapolis Center
19:55 43.8369 -89.1992 100° East 483 556 39,000  Level Minneapolis Center
19:56 43.8075 -88.9811 101° East 491 565 39,000  Level Minneapolis Center
19:58 43.7822 -88.7939 101° East 492 566 39,000  Level Minneapolis Center
19:59 43.7567 -88.6072 101° East 490 564 39,000  Level Minneapolis Center
20:00 43.7306 -88.4203 101° East 489 563 39,000  Level Minneapolis Center
20:01 43.7050 -88.2328 101° East 490 564 39,000  Level Minneapolis Center
20:02 43.6633 -88.0575 108° East 478 550 39,000  Level Minneapolis Center
20:03 43.6064 -87.8967 116° Southeast 465 535 39,000  Level Minneapolis Center
20:04 43.5494 -87.7364 116° Southeast 462 532 39,000  Level Minneapolis Center
20:05 43.4911 -87.5764 117° Southeast 465 535 39,000  Level Minneapolis Center
20:06 43.4244 -87.3869 116° Southeast 469 540 39,000  Level Minneapolis Center
20:07 43.3617 -87.2181 117° Southeast 472 543 39,000  Level Chicago Center
20:08 43.3039 -87.0547 116° Southeast 476 548 39,000  Level Chicago Center
20:09 43.2333 -86.8619 117° Southeast 473 544 39,000  Level Chicago Center
20:10 43.1739 -86.7003 117° Southeast 476 548 39,000  Level Chicago Center
20:11 43.1142 -86.5400 117° Southeast 476 548 39,000  Level Chicago Center
20:12 43.0536 -86.3800 117° Southeast 477 549 39,000  Level Chicago Center
20:13 42.9936 -86.2211 117° Southeast 477 549 39,000  Level Chicago Center
20:14 42.9342 -86.0650 117° Southeast 476 548 39,000  Level Chicago Center
20:15 42.8644 -85.8775 117° Southeast 473 544 39,000  Level Chicago Center
20:16 42.8053 -85.7208 117° Southeast 471 542 39,000  Level Chicago Center
20:17 42.7461 -85.5644 117° Southeast 468 539 39,000  Level Chicago Center
20:18 42.6856 -85.4086 118° Southeast 468 539 39,000  Level Chicago Center
20:19 42.6253 -85.2514 117° Southeast 469 540 39,000  Level Chicago Center
20:20 42.5647 -85.0939 118° Southeast 472 543 39,000  Level Chicago Center
20:21 42.5042 -84.9358 117° Southeast 472 543 39,000  Level Chicago Center
20:22 42.4414 -84.7772 118° Southeast 477 549 39,000  Level Chicago Center
20:23 42.3669 -84.6022 120° Southeast 478 550 39,000  Level Cleveland Center
20:24 42.3056 -84.4467 118° Southeast 478 550 39,000  Level Cleveland Center
20:25 42.2397 -84.2911 120° Southeast 478 550 39,000  Level Cleveland Center
20:26 42.1781 -84.1333 118° Southeast 478 550 39,000  Level Cleveland Center
20:27 42.1119 -83.9758 119° Southeast 478 550 39,000  Level Cleveland Center
20:28 42.0500 -83.8158 117° Southeast 478 550 39,000  Level Cleveland Center
20:29 41.9950 -83.6900 120° Southeast 478 550 39,000  Level Cleveland Center
20:30 41.9344 -83.5308 117° Southeast 478 550 39,000  Level Cleveland Center
20:31 41.8617 -83.3603 120° Southeast 478 550 39,000  Level Cleveland Center
20:32 41.7944 -83.2014 120° Southeast 483 556 39,000  Level Cleveland Center
20:33 41.7314 -83.0428 118° Southeast 483 556 39,000  Level Cleveland Center
20:34 41.6636 -82.8847 120° Southeast 489 563 39,000  Level Cleveland Center
20:35 41.6039 -82.7408 119° Southeast 489 563 39,000  Level Cleveland Center
20:36 41.5086 -82.5933 131° Southeast 489 563 39,000  Level Cleveland Center
20:37 41.4172 -82.4633 133° Southeast 484 557 39,000  Level Cleveland Center
20:38 41.3256 -82.3250 131° Southeast 484 557 39,000  Level Cleveland Center
20:40 41.2048 -82.1601 134° Southeast  Level FlightAware Approximate
20:40 41.1581 -82.0778 134° Southeast 479 551 39,000  Level Cleveland Center
20:41 41.0556 -81.9378 134° Southeast 479 551 39,000  Level Cleveland Center
20:42 40.9672 -81.8094 132° Southeast 474 545 39,000  Level Cleveland Center
20:43 40.8769 -81.6842 134° Southeast 474 545 39,000  Level Cleveland Center
20:44 40.7906 -81.5594 132° Southeast 474 545 39,000  Level Cleveland Center
20:45 40.6997 -81.4322 133° Southeast 474 545 39,000  Level Cleveland Center
20:46 40.6089 -81.3050 133° Southeast 474 545 39,000  Level Cleveland Center
20:47 40.5347 -81.1814 128° Southeast 474 545 39,000  Level Cleveland Center
20:48 40.4519 -81.0497 130° Southeast 474 545 39,000 -300 Level Cleveland Center
20:49 40.3689 -80.9100 128° Southeast 474 545 38,400 -840 Descending Cleveland Center
20:50 40.2881 -80.7792 129° Southeast 479 551 37,400 -960 Descending Cleveland Center
20:51 40.2047 -80.6428 129° Southeast 479 551 36,500 -900 Descending Cleveland Center
20:52 40.1214 -80.5097 129° Southeast 479 551 35,600 -780 Descending Cleveland Center
20:53 40.0378 -80.3769 129° Southeast 479 551 35,000 -900 Descending Cleveland Center
20:54 39.9458 -80.2311 129° Southeast 479 551 33,800 -1,140 Descending Cleveland Center
20:55 39.8639 -80.1017 129° Southeast 474 545 32,800 -1,020 Descending Cleveland Center
20:57 39.6950 -79.8392 130° Southeast 467 537 30,900 -1,020 Descending Washington Center
20:58 39.6142 -79.7078 129° Southeast 467 537 29,900 -1,500 Descending Washington Center
20:59 39.5350 -79.5847 130° Southeast 460 529 27,900 -1,440 Descending Washington Center
21:00 39.4856 -79.4422 114° Southeast 440 506 27,000 -480 Descending Washington Center
21:01 39.4569 -79.2847 103° East 432 497 27,000 -780 Level Washington Center
21:02 39.4300 -79.1464 104° East 438 504 25,500 -2,100 Descending Washington Center
21:03 39.4031 -78.9947 103° East 438 504 22,900 -2,520 Descending Washington Center
21:04 39.3758 -78.8511 104° East 427 491 20,500 -2,340 Descending Washington Center
21:05 39.3503 -78.7156 104° East 405 466 18,300 -2,160 Descending Washington Center
21:06 39.3283 -78.5886 103° East 380 437 16,200 -2,100 Descending Washington Center
21:07 39.3067 -78.4589 102° East 369 425 14,100 -2,160 Descending Washington Center
21:08 39.2739 -78.3397 110° East 358 412 11,900 -1,560 Descending Washington Center
21:09 39.2219 -78.2414 124° Southeast 344 396 11,000 -1,080 Descending Washington Center
21:10 39.1719 -78.1483 125° Southeast 328 377 9,800 -1,440 Descending Washington Center
21:11 39.1256 -78.0639 125° Southeast 315 362 8,200 -1,440 Descending Washington Center
21:12 39.0814 -77.9794 124° Southeast 290 334 7,000 -600 Descending Washington Center
21:13 39.0392 -77.9006 125° Southeast 279 321 7,100  Climbing Washington Center
21:14 38.9992 -77.8219 123° Southeast 267 307 7,000 -540 Descending Washington Center
21:15 38.9631 -77.7300 117° Southeast 267 307 6,100 -480 Descending Washington Center
21:16 38.9522 -77.6417 99° East 262 302 6,100 -600 Level Washington Center
21:17 38.9167 -77.6000 138° Southeast 260 299 5,200 -1,320 Descending Potomac TRACON
21:18 38.8500 -77.5667 159° South 246 283 4,100 -840 Descending Potomac TRACON
21:19 38.8000 -77.5500 165° South 214 246 3,600 -720 Descending Potomac TRACON
21:20 38.8000 -77.5000 90° East 193 222 2,700 -780 Descending Potomac TRACON
21:21 38.8333 -77.4667 38° Northeast 182 209 2,100 -660 Descending Potomac TRACON
21:22 38.8833 -77.4667 360° North 159 183 1,400 -720 Descending Potomac TRACON
21:23 38.9167 -77.4667 360° North 136 157 700 -720 Descending Potomac TRACON
21:25 38.9333 -77.4500 165° South  Level FlightAware Approximate
21:32 38.9474 -77.4599 165° South  Level Estimated